Time;durP1;ratioP1;P1;durP2;ratioP2;P2;SDS_P1;SDS_P2;PMS_P1;PMS_P2;Temp;Humidity;BMP_temperature;BMP_pressure;BME280_temperature;BME280_humidity;BME280_pressure;Samples;Min_cycle;Max_cycle;Signal;HPM_P1;HPM_P2
2020/12/17 00:00:33;;;;;;;55.58;29.40;;;;;;;1.09;88.01;101122.99;1773286;79;21037;-76
2020/12/17 00:03:01;;;;;;;51.45;29.63;;;;;;;1.09;88.12;101128.55;1797758;79;21350;-75
2020/12/17 00:05:30;;;;;;;52.15;28.92;;;;;;;1.09;88.25;101140.09;1773219;81;21069;-74
2020/12/17 00:07:59;;;;;;;59.58;30.05;;;;;;;1.10;88.26;101132.83;1797698;78;20942;-74
2020/12/17 00:10:27;;;;;;;59.25;29.37;;;;;;;1.12;88.35;101128.55;1773389;81;21505;-75
2020/12/17 00:12:55;;;;;;;59.15;29.92;;;;;;;1.13;88.34;101132.83;1798225;79;20941;-74
2020/12/17 00:15:25;;;;;;;56.25;31.95;;;;;;;1.12;88.31;101137.10;1794971;80;21032;-75
2020/12/17 00:17:53;;;;;;;60.92;34.78;;;;;;;1.13;88.35;101134.11;1761910;81;21017;-74
2020/12/17 00:20:23;;;;;;;58.48;33.40;;;;;;;1.14;88.44;101139.24;1794928;80;21006;-75
2020/12/17 00:22:51;;;;;;;55.20;30.90;;;;;;;1.15;88.46;101133.69;1761879;80;20960;-74
2020/12/17 00:25:19;;;;;;;57.50;29.40;;;;;;;1.15;88.46;101134.97;1794898;80;21607;-75
2020/12/17 00:27:48;;;;;;;49.75;27.25;;;;;;;1.15;88.42;101137.11;1761895;80;22158;-73
2020/12/17 00:30:17;;;;;;;52.13;29.23;;;;;;;1.16;88.40;101135.39;1794840;80;20946;-75
2020/12/17 00:32:46;;;;;;;51.73;28.50;;;;;;;1.14;88.45;101130.69;1762025;81;20969;-74
2020/12/17 00:35:15;;;;;;;47.27;27.25;;;;;;;1.15;88.55;101129.41;1794970;80;21509;-74
2020/12/17 00:37:44;;;;;;;55.08;30.75;;;;;;;1.17;88.53;101121.72;1743994;81;20951;-74
2020/12/17 00:40:13;;;;;;;48.85;28.90;;;;;;;1.17;88.45;101116.58;1761878;80;22166;-74
2020/12/17 00:42:43;;;;;;;50.92;27.95;;;;;;;1.17;88.51;101122.56;1794882;80;21010;-74
2020/12/17 00:45:13;;;;;;;47.58;26.05;;;;;;;1.18;88.50;101124.70;1761995;81;21574;-74
2020/12/17 00:47:43;;;;;;;47.27;25.17;;;;;;;1.18;88.45;101138.39;1794900;80;21006;-74
2020/12/17 00:50:11;;;;;;;45.50;26.52;;;;;;;1.17;88.48;101146.94;1761931;81;21029;-74
2020/12/17 00:52:40;;;;;;;46.42;25.57;;;;;;;1.16;88.49;101132.41;1794882;80;21902;-74
2020/12/17 00:55:08;;;;;;;44.35;26.23;;;;;;;1.16;88.55;101131.55;1761853;80;20968;-74
2020/12/17 00:57:37;;;;;;;51.70;26.97;;;;;;;1.18;88.54;101137.53;1794938;79;20935;-74
2020/12/17 01:00:06;;;;;;;49.27;27.17;;;;;;;1.17;88.52;101135.83;1761874;81;21068;-74
2020/12/17 01:02:35;;;;;;;48.02;26.42;;;;;;;1.19;88.52;101143.09;1794924;80;21027;-74
2020/12/17 01:05:05;;;;;;;46.08;25.85;;;;;;;1.19;88.58;101132.83;1761846;80;21657;-74
2020/12/17 01:07:34;;;;;;;51.60;26.70;;;;;;;1.21;88.58;101122.97;1794825;79;20970;-74
2020/12/17 01:10:03;;;;;;;48.75;26.97;;;;;;;1.21;88.55;101125.53;1761915;81;21016;-74
2020/12/17 01:12:32;;;;;;;51.28;26.55;;;;;;;1.21;88.55;101134.94;1794866;80;21026;-74
2020/12/17 01:15:00;;;;;;;49.50;26.48;;;;;;;1.23;88.57;101135.80;1762038;80;20964;-74
2020/12/17 01:17:29;;;;;;;45.95;25.00;;;;;;;1.24;88.49;101143.91;1795088;80;21195;-75
2020/12/17 01:19:57;;;;;;;43.52;24.57;;;;;;;1.23;88.52;101141.78;1762186;80;20933;-75
2020/12/17 01:22:25;;;;;;;45.30;24.52;;;;;;;1.23;88.51;101136.64;1795369;79;20943;-75
2020/12/17 01:24:54;;;;;;;51.20;25.17;;;;;;;1.24;88.50;101135.80;1762361;80;21080;-75
2020/12/17 01:27:23;;;;;;;43.00;24.30;;;;;;;1.24;88.53;101134.94;1795325;79;21054;-75
2020/12/17 01:29:51;;;;;;;49.35;26.17;;;;;;;1.25;88.64;101135.36;1762272;80;21293;-75
2020/12/17 01:32:20;;;;;;;45.52;25.48;;;;;;;1.26;88.62;101131.95;1795403;80;21349;-75
2020/12/17 01:34:48;;;;;;;41.50;25.20;;;;;;;1.28;88.65;101123.82;1762277;80;20972;-75
2020/12/17 01:37:18;;;;;;;47.20;25.65;;;;;;;1.26;88.56;101128.95;1794763;80;20979;-75
2020/12/17 01:39:47;;;;;;;43.13;25.23;;;;;;;1.26;88.61;101128.95;1762341;80;20937;-75
2020/12/17 01:42:16;;;;;;;46.25;25.30;;;;;;;1.26;88.62;101131.52;1795377;80;21163;-74
2020/12/17 01:44:49;;;;;;;50.85;25.40;;;;;;;1.26;88.62;101130.66;1762246;80;21119;-75
2020/12/17 01:47:14;;;;;;;49.30;25.43;;;;;;;1.26;88.63;101140.50;1808840;79;21038;-75
2020/12/17 01:49:43;;;;;;;49.85;26.77;;;;;;;1.26;88.68;101138.36;1795277;80;21016;-75
2020/12/17 01:52:11;;;;;;;44.42;23.90;;;;;;;1.25;88.70;101134.08;1762262;81;21073;-75
2020/12/17 01:54:39;;;;;;;47.75;24.50;;;;;;;1.26;88.75;101139.64;1795336;80;21524;-75
2020/12/17 01:57:08;;;;;;;43.65;23.50;;;;;;;1.25;88.81;101132.37;1762162;80;21352;-75
2020/12/17 01:59:49;;;;;;;48.75;24.67;;;;;;;1.27;88.82;101140.92;1746478;80;20947;-75
2020/12/17 02:02:19;;;;;;;42.27;23.10;;;;;;;1.27;88.84;101140.92;1762287;81;21001;-75
2020/12/17 02:04:47;;;;;;;45.38;24.77;;;;;;;1.28;88.80;101133.66;1795325;80;20915;-75
2020/12/17 02:07:16;;;;;;;40.43;23.22;;;;;;;1.28;88.78;101134.08;1762220;81;22023;-75
2020/12/17 02:09:46;;;;;;;42.45;23.38;;;;;;;1.27;88.83;101133.23;1795201;80;21030;-75
2020/12/17 02:12:14;;;;;;;46.08;24.10;;;;;;;1.28;88.87;101142.64;1762298;81;20981;-75
2020/12/17 02:14:43;;;;;;;42.78;22.95;;;;;;;1.28;88.89;101137.50;1783298;80;21000;-75
2020/12/17 02:17:11;;;;;;;45.38;24.00;;;;;;;1.28;88.91;101141.35;1761750;81;20988;-75
2020/12/17 02:19:39;;;;;;;38.35;21.75;;;;;;;1.30;88.95;101148.63;1811209;79;22092;-75
2020/12/17 02:22:07;;;;;;;40.00;22.77;;;;;;;1.31;88.97;101143.92;1811122;79;21513;-75
2020/12/17 02:24:35;;;;;;;44.40;23.30;;;;;;;1.33;88.95;101145.20;1811217;79;21357;-75
2020/12/17 02:27:04;;;;;;;41.02;23.05;;;;;;;1.34;88.88;101153.33;1770486;80;21453;-75
2020/12/17 02:29:32;;;;;;;46.90;25.57;;;;;;;1.34;88.79;101158.46;1761781;81;21402;-75
2020/12/17 02:32:00;;;;;;;46.73;23.87;;;;;;;1.33;88.72;101155.47;1811149;78;21615;-75
2020/12/17 02:34:28;;;;;;;48.92;22.98;;;;;;;1.32;88.85;101158.45;1811028;79;20971;-75
2020/12/17 02:36:56;;;;;;;49.95;25.32;;;;;;;1.33;88.83;101156.32;1811107;78;20924;-75
2020/12/17 02:39:25;;;;;;;44.55;25.27;;;;;;;1.34;88.90;101156.75;1770362;80;20956;-76
2020/12/17 02:41:53;;;;;;;46.42;24.87;;;;;;;1.35;88.83;101160.17;1761745;80;21015;-75
2020/12/17 02:44:21;;;;;;;56.37;26.68;;;;;;;1.37;88.83;101164.02;1761814;80;22221;-75
2020/12/17 02:46:49;;;;;;;50.35;25.25;;;;;;;1.36;88.87;101172.14;1811050;79;21042;-75
2020/12/17 02:49:17;;;;;;;49.77;25.97;;;;;;;1.39;88.87;101163.59;1811121;78;20987;-75
2020/12/17 02:51:46;;;;;;;47.90;25.75;;;;;;;1.40;88.80;101165.30;1811095;79;21496;-75
2020/12/17 02:54:15;;;;;;;45.05;23.32;;;;;;;1.40;88.75;101168.73;1770383;81;20994;-75
2020/12/17 02:56:43;;;;;;;50.80;25.12;;;;;;;1.38;88.70;101160.17;1761732;80;21185;-75
2020/12/17 02:59:11;;;;;;;46.75;25.08;;;;;;;1.36;88.67;101160.59;1811030;79;20956;-75
2020/12/17 03:01:40;;;;;;;48.13;24.82;;;;;;;1.33;88.70;101157.60;1770344;80;21031;-75
2020/12/17 03:04:08;;;;;;;48.30;27.02;;;;;;;1.33;88.84;101160.59;1811058;78;21011;-75
2020/12/17 03:06:36;;;;;;;45.38;23.98;;;;;;;1.32;88.85;101162.31;1811121;79;20936;-75
2020/12/17 03:09:05;;;;;;;51.77;25.82;;;;;;;1.33;88.85;101163.16;1811158;79;22213;-75
2020/12/17 03:11:33;;;;;;;51.00;25.25;;;;;;;1.30;88.84;101155.04;1811044;78;21007;-75
2020/12/17 03:14:02;;;;;;;48.55;24.43;;;;;;;1.30;88.91;101154.19;1810974;77;20975;-75
2020/12/17 03:16:32;;;;;;;52.88;26.42;;;;;;;1.29;89.00;101158.45;1811382;79;21014;-75
2020/12/17 03:19:01;;;;;;;51.60;25.92;;;;;;;1.31;89.05;101171.29;1794971;80;21054;-74
2020/12/17 03:21:30;;;;;;;47.67;24.35;;;;;;;1.32;89.09;101165.30;1761944;80;21400;-75
2020/12/17 03:23:58;;;;;;;49.08;25.32;;;;;;;1.33;89.03;101163.16;1795036;80;21481;-75
2020/12/17 03:26:26;;;;;;;50.75;26.57;;;;;;;1.34;88.99;101163.59;1761900;80;20961;-75
2020/12/17 03:28:55;;;;;;;51.68;25.40;;;;;;;1.33;89.05;101167.87;1794894;80;20964;-75
2020/12/17 03:31:23;;;;;;;43.65;25.45;;;;;;;1.35;89.03;101169.16;1762005;81;20958;-75
2020/12/17 03:33:51;;;;;;;50.48;25.68;;;;;;;1.36;89.02;101168.30;1794935;80;21358;-75
2020/12/17 03:36:20;;;;;;;48.75;26.02;;;;;;;1.37;89.04;101167.87;1761893;81;21068;-75
2020/12/17 03:38:48;;;;;;;49.98;25.43;;;;;;;1.38;88.98;101174.71;1794913;80;21362;-75
2020/12/17 03:41:17;;;;;;;48.55;24.85;;;;;;;1.38;88.98;101170.44;1761872;80;21432;-75
2020/12/17 03:43:45;;;;;;;51.98;26.40;;;;;;;1.39;88.89;101176.42;1795060;78;20935;-75
2020/12/17 03:46:15;;;;;;;47.53;25.17;;;;;;;1.39;88.82;101179.84;1761949;80;21194;-75
2020/12/17 03:48:43;;;;;;;54.10;25.60;;;;;;;1.38;88.85;101174.28;1794947;80;21022;-75
2020/12/17 03:51:11;;;;;;;52.58;26.48;;;;;;;1.38;88.89;101180.70;1761925;81;21012;-75
2020/12/17 03:53:39;;;;;;;58.65;26.85;;;;;;;1.38;88.92;101175.56;1794853;80;21034;-75
2020/12/17 03:56:08;;;;;;;50.12;25.95;;;;;;;1.40;88.87;101181.56;1761963;81;20941;-75
2020/12/17 03:58:36;;;;;;;54.98;25.43;;;;;;;1.37;88.77;101185.41;1794929;80;21910;-75
2020/12/17 04:01:04;;;;;;;57.13;26.90;;;;;;;1.35;88.87;101185.83;1761856;81;21000;-75
2020/12/17 04:03:33;;;;;;;50.43;25.82;;;;;;;1.36;88.89;101182.84;1794701;80;42180;-75
2020/12/17 04:06:01;;;;;;;48.55;24.02;;;;;;;1.34;88.85;101186.26;1761855;80;20969;-75
2020/12/17 04:08:30;;;;;;;52.43;25.80;;;;;;;1.32;88.96;101180.27;1795013;78;20923;-74
2020/12/17 04:10:58;;;;;;;48.50;24.50;;;;;;;1.31;88.97;101183.69;1761936;80;21129;-75
2020/12/17 04:13:26;;;;;;;51.48;25.08;;;;;;;1.30;89.09;101183.27;1794983;80;20959;-75
2020/12/17 04:15:54;;;;;;;51.58;25.12;;;;;;;1.30;89.17;101175.56;1745921;81;21005;-75
2020/12/17 04:18:22;;;;;;;47.90;25.20;;;;;;;1.33;89.25;101179.84;1770287;81;20959;-75
2020/12/17 04:20:51;;;;;;;48.60;24.35;;;;;;;1.34;89.19;101177.28;1811113;78;21547;-75
2020/12/17 04:23:19;;;;;;;52.58;26.42;;;;;;;1.34;89.09;101182.41;1810989;79;21182;-75
2020/12/17 04:25:48;;;;;;;68.12;28.50;;;;;;;1.34;89.09;101183.69;1810991;79;20940;-75
2020/12/17 04:28:16;;;;;;;68.22;31.50;;;;;;;1.37;89.20;101179.42;1811027;79;20916;-75
2020/12/17 04:30:44;;;;;;;50.52;27.73;;;;;;;1.38;89.12;101177.28;1811003;79;20971;-76
2020/12/17 04:33:12;;;;;;;52.93;26.27;;;;;;;1.39;89.08;101172.15;1811030;78;20944;-76
2020/12/17 04:35:41;;;;;;;49.55;25.23;;;;;;;1.39;89.05;101171.29;1811036;79;21176;-74
2020/12/17 04:38:09;;;;;;;50.43;26.57;;;;;;;1.37;89.06;101173.86;1770271;81;21023;-74
2020/12/17 04:40:37;;;;;;;46.02;23.83;;;;;;;1.35;89.00;101166.59;1811045;78;20939;-74
2020/12/17 04:43:05;;;;;;;47.45;25.08;;;;;;;1.34;89.12;101172.14;1784333;79;20940;-74
2020/12/17 04:45:34;;;;;;;51.68;26.52;;;;;;;1.33;89.31;101173.00;1811110;79;20982;-74
2020/12/17 04:48:07;;;;;;;46.85;25.80;;;;;;;1.36;89.54;101170.86;1810997;79;21188;-73
2020/12/17 04:50:35;;;;;;;44.48;23.22;;;;;;;1.38;89.35;101172.14;1811112;79;20956;-74
2020/12/17 04:53:04;;;;;;;43.80;24.70;;;;;;;1.37;89.24;101171.72;1811085;78;20959;-74
2020/12/17 04:55:34;;;;;;;53.02;27.02;;;;;;;1.37;89.20;101170.44;1811213;79;21010;-74
2020/12/17 04:58:02;;;;;;;51.30;27.17;;;;;;;1.36;89.35;101164.88;1811147;79;21003;-73
2020/12/17 05:00:30;;;;;;;59.67;27.73;;;;;;;1.37;89.55;101170.44;1770503;81;21200;-73
2020/12/17 05:02:58;;;;;;;52.00;25.37;;;;;;;1.40;89.67;101171.72;1811209;78;20935;-73
2020/12/17 05:05:27;;;;;;;48.58;24.05;;;;;;;1.42;89.69;101177.70;1811187;79;20943;-73
2020/12/17 05:07:55;;;;;;;44.65;23.45;;;;;;;1.45;89.63;101177.28;1811122;78;20924;-73
2020/12/17 05:10:24;;;;;;;41.37;21.97;;;;;;;1.47;89.57;101179.42;1784882;79;21006;-73
2020/12/17 05:12:52;;;;;;;44.67;23.57;;;;;;;1.51;89.56;101187.55;1770423;80;21135;-73
2020/12/17 05:15:25;;;;;;;43.55;23.15;;;;;;;1.53;89.49;101191.39;1811151;78;21051;-73
2020/12/17 05:17:53;;;;;;;44.53;22.52;;;;;;;1.55;89.56;101187.97;1811469;79;20983;-73
2020/12/17 05:20:21;;;;;;;42.08;21.95;;;;;;;1.60;89.51;101189.25;1795087;80;21566;-73
2020/12/17 05:22:49;;;;;;;41.65;22.10;;;;;;;1.63;89.35;101191.36;1762086;80;20905;-74
2020/12/17 05:25:18;;;;;;;42.45;22.15;;;;;;;1.65;89.32;101181.95;1794693;79;21496;-74
2020/12/17 05:27:46;;;;;;;47.17;23.05;;;;;;;1.66;89.19;101181.09;1736711;81;21475;-75
2020/12/17 05:30:15;;;;;;;42.38;22.07;;;;;;;1.69;89.08;101200.77;1768960;80;21521;-75
2020/12/17 05:32:43;;;;;;;45.60;22.10;;;;;;;1.73;89.01;101193.50;1762006;81;21034;-75
2020/12/17 05:35:14;;;;;;;43.13;23.02;;;;;;;1.75;88.73;101194.78;1794594;79;21575;-74
2020/12/17 05:37:44;;;;;;;42.62;21.55;;;;;;;1.74;88.50;101195.20;1762013;80;21350;-74
2020/12/17 05:40:13;;;;;;;43.95;22.17;;;;;;;1.74;88.41;101200.34;1713488;80;21457;-74
2020/12/17 05:42:41;;;;;;;42.88;22.77;;;;;;;1.75;88.35;101201.20;1762021;81;20993;-74
2020/12/17 05:45:27;;;;;;;38.88;21.93;;;;;;;1.73;88.24;101199.06;1794986;80;20939;-74
2020/12/17 05:48:19;;;;;;;42.80;22.17;;;;;;;1.70;88.20;101197.34;1760453;81;20959;-74
2020/12/17 05:50:57;;;;;;;41.40;22.40;;;;;;;1.71;88.23;101207.19;1768569;81;22162;-74
2020/12/17 05:53:27;;;;;;;38.88;21.70;;;;;;;1.70;88.23;101212.75;1768323;79;20923;-74
2020/12/17 05:56:06;;;;;;;40.08;21.48;;;;;;;1.71;88.25;101217.45;1768310;80;20936;-74
2020/12/17 05:58:44;;;;;;;41.18;23.32;;;;;;;1.73;88.20;101207.62;1770461;78;21484;-79
2020/12/17 06:01:14;;;;;;;57.62;33.48;;;;;;;1.73;88.28;101212.75;1784156;79;21580;-73
2020/12/17 06:03:44;;;;;;;63.20;37.60;;;;;;;1.74;88.44;101214.46;1799399;79;21197;-74
2020/12/17 06:06:12;;;;;;;54.18;29.63;;;;;;;1.77;88.40;101220.88;1798716;78;20987;-74
2020/12/17 06:08:41;;;;;;;47.48;26.87;;;;;;;1.79;88.31;101221.73;1798810;79;21079;-74
2020/12/17 06:11:10;;;;;;;46.88;27.30;;;;;;;1.81;88.21;101225.59;1802116;78;21630;-75
2020/12/17 06:13:41;;;;;;;45.85;26.20;;;;;;;1.82;88.30;101224.30;1782678;79;21073;-70
2020/12/17 06:16:11;;;;;;;41.70;23.70;;;;;;;1.86;88.19;101221.30;1780967;79;21327;-83
2020/12/17 06:18:57;;;;;;;41.13;24.27;;;;;;;1.88;88.00;101223.02;1793338;78;21076;-77
2020/12/17 06:21:29;;;;;;;37.00;21.85;;;;;;;1.89;87.85;101234.14;1781238;78;21190;-74
2020/12/17 06:23:59;;;;;;;35.58;21.57;;;;;;;1.90;87.72;101239.70;1805448;78;21088;-78
2020/12/17 06:26:29;;;;;;;38.20;20.88;;;;;;;1.90;87.67;101240.56;1798277;79;21039;-75
2020/12/17 06:28:58;;;;;;;39.90;21.40;;;;;;;1.92;87.67;101241.84;1792222;78;21622;-77
2020/12/17 06:31:26;;;;;;;35.23;20.32;;;;;;;1.93;87.63;101245.70;1795406;79;21072;-70
2020/12/17 06:34:03;;;;;;;38.00;21.12;;;;;;;1.95;87.53;101240.55;1795812;79;21091;-71
2020/12/17 06:36:39;;;;;;;36.30;21.37;;;;;;;1.94;87.44;101240.98;1797547;79;20983;-69
2020/12/17 06:39:07;;;;;;;42.43;21.52;;;;;;;1.96;87.36;101243.13;1798019;79;21521;-70
2020/12/17 06:41:36;;;;;;;36.20;21.45;;;;;;;1.96;87.27;101245.69;1797728;79;21140;-69
2020/12/17 06:44:31;;;;;;;34.78;20.25;;;;;;;1.96;87.25;101238.41;1772744;78;21156;-74
2020/12/17 06:47:07;;;;;;;39.03;23.45;;;;;;;2.00;87.40;101239.66;1846827;76;22818;-73
2020/12/17 06:49:35;;;;;;;38.60;23.25;;;;;;;1.97;87.33;101243.98;1793477;78;21017;-68
2020/12/17 06:52:07;;;;;;;37.55;21.23;;;;;;;1.97;87.28;101247.41;1789687;77;22149;-68
2020/12/17 06:54:40;;;;;;;38.40;21.10;;;;;;;1.97;87.30;101248.69;1797315;77;21013;-71
2020/12/17 06:57:10;;;;;;;35.45;20.65;;;;;;;1.98;87.34;101251.69;1798424;77;21029;-70
2020/12/17 06:59:43;;;;;;;43.13;23.20;;;;;;;1.98;87.31;101254.25;1788817;79;20993;-69
2020/12/17 07:02:20;;;;;;;35.98;21.12;;;;;;;1.98;87.34;101256.82;1792256;79;21056;-73
2020/12/17 07:04:49;;;;;;;37.38;21.15;;;;;;;1.99;87.29;101265.38;1808753;79;21189;-74
2020/12/17 07:07:23;;;;;;;38.98;21.35;;;;;;;1.98;87.29;101270.95;1805106;77;21076;-77
2020/12/17 07:09:54;;;;;;;37.83;20.95;;;;;;;1.98;87.36;101262.39;1814944;77;21017;-73
2020/12/17 07:12:39;;;;;;;36.33;21.42;;;;;;;1.99;87.41;101266.23;1809133;79;21012;-71
2020/12/17 07:15:33;;;;;;;35.17;19.98;;;;;;;2.00;87.37;101265.34;1816957;79;21352;-67
2020/12/17 07:18:24;;;;;;;35.20;20.72;;;;;;;2.01;87.51;101267.06;1799894;79;21348;-73
2020/12/17 07:21:05;;;;;;;36.15;21.48;;;;;;;2.01;87.43;101268.34;1785014;80;21102;-72
2020/12/17 07:23:37;;;;;;;39.33;21.60;;;;;;;2.03;87.47;101270.06;1785967;79;21072;-73
2020/12/17 07:26:14;;;;;;;40.58;20.65;;;;;;;2.05;87.43;101279.91;1799339;79;21507;-75
2020/12/17 07:28:51;;;;;;;33.83;19.60;;;;;;;2.05;87.41;101279.47;1789041;77;21132;-74
2020/12/17 07:31:26;;;;;;;39.00;20.77;;;;;;;2.09;87.46;101285.47;1775899;79;21188;-79
2020/12/17 07:33:54;;;;;;;42.03;22.80;;;;;;;2.11;87.36;101290.17;1816719;79;21068;-74
2020/12/17 07:36:47;;;;;;;40.03;21.45;;;;;;;2.14;87.25;101296.17;1816939;79;20961;-77
2020/12/17 07:39:16;;;;;;;39.75;21.05;;;;;;;2.15;87.21;101291.88;1784857;80;20925;-74
2020/12/17 07:41:44;;;;;;;37.73;21.62;;;;;;;2.16;87.15;101292.31;1814638;79;20962;-73
2020/12/17 07:44:34;;;;;;;40.15;22.05;;;;;;;2.17;87.14;101292.73;1816902;79;21415;-71
2020/12/17 07:47:21;;;;;;;45.78;22.87;;;;;;;2.16;87.15;101290.59;1814989;78;20988;-71
2020/12/17 07:49:50;;;;;;;44.65;22.27;;;;;;;2.18;87.20;101288.03;1806473;78;21046;-81
2020/12/17 07:52:33;;;;;;;51.48;23.42;;;;;;;2.20;87.27;101290.17;1762470;81;21023;-78
2020/12/17 07:55:02;;;;;;;55.80;25.25;;;;;;;2.22;87.33;101293.59;1807674;78;21689;-74
2020/12/17 07:57:30;;;;;;;58.85;26.55;;;;;;;2.24;87.33;101289.30;1803983;78;21198;-70
2020/12/17 07:59:59;;;;;;;53.20;24.15;;;;;;;2.27;87.28;101289.30;1790209;78;21084;-73
2020/12/17 08:02:28;;;;;;;56.65;26.15;;;;;;;2.27;87.42;101296.58;1790436;79;21057;-71
2020/12/17 08:04:56;;;;;;;53.75;26.15;;;;;;;2.28;87.54;101291.87;1790939;79;21016;-70
2020/12/17 08:07:25;;;;;;;54.33;24.72;;;;;;;2.31;87.54;101295.72;1796165;78;21045;-71
2020/12/17 08:10:00;;;;;;;51.08;24.10;;;;;;;2.33;87.61;101290.14;1796507;77;21310;-75
2020/12/17 08:12:28;;;;;;;52.33;24.43;;;;;;;2.36;87.49;101298.28;1791412;78;21044;-75
2020/12/17 08:15:09;;;;;;;58.33;26.25;;;;;;;2.38;87.49;101292.71;1821407;78;21111;-74
2020/12/17 08:17:38;;;;;;;50.90;24.05;;;;;;;2.41;87.42;101299.53;1822116;78;21028;-75
2020/12/17 08:20:06;;;;;;;51.90;25.48;;;;;;;2.43;87.43;101306.80;1823025;78;20933;-75
2020/12/17 08:22:35;;;;;;;56.15;26.12;;;;;;;2.44;87.34;101306.80;1816637;78;21185;-75
2020/12/17 08:25:06;;;;;;;48.85;24.32;;;;;;;2.45;87.32;101307.66;1805055;78;21012;-76
2020/12/17 08:27:35;;;;;;;52.00;23.70;;;;;;;2.44;87.25;101308.09;1804785;78;21182;-75
2020/12/17 08:30:04;;;;;;;47.53;23.70;;;;;;;2.44;87.33;101311.09;1790853;78;21074;-73
2020/12/17 08:32:33;;;;;;;45.52;22.62;;;;;;;2.44;87.60;101310.66;1810704;78;21664;-70
2020/12/17 08:35:01;;;;;;;50.60;24.45;;;;;;;2.45;87.79;101312.80;1765289;81;21384;-71
2020/12/17 08:37:30;;;;;;;51.73;24.37;;;;;;;2.47;87.74;101312.37;1815871;78;21088;-69
2020/12/17 08:40:06;;;;;;;54.58;24.37;;;;;;;2.48;87.73;101316.22;1804663;78;21016;-71
2020/12/17 08:42:35;;;;;;;54.85;24.35;;;;;;;2.49;87.62;101316.65;1811377;78;20945;-76
2020/12/17 08:45:10;;;;;;;63.42;28.10;;;;;;;2.48;87.59;101316.22;1803375;78;21581;-78
2020/12/17 08:47:50;;;;;;;60.98;28.85;;;;;;;2.49;87.57;101317.08;1806230;78;21536;-75
2020/12/17 08:50:18;;;;;;;64.42;29.50;;;;;;;2.50;87.51;101315.79;1784326;78;21163;-75
2020/12/17 08:52:46;;;;;;;61.25;28.85;;;;;;;2.53;87.52;101317.07;1779626;79;21045;-77
2020/12/17 08:55:18;;;;;;;64.27;29.52;;;;;;;2.55;87.47;101324.78;1730210;81;21634;-81
2020/12/17 08:57:48;;;;;;;56.15;27.55;;;;;;;2.57;87.41;101322.63;1744813;82;21132;-86
2020/12/17 09:00:19;;;;;;;60.12;27.93;;;;;;;2.60;87.50;101330.34;1782360;79;22198;-77
2020/12/17 09:02:47;;;;;;;56.90;26.77;;;;;;;2.63;87.45;101329.05;1773111;79;20977;-72
2020/12/17 09:05:16;;;;;;;52.75;25.57;;;;;;;2.64;87.40;101326.91;1800321;79;20974;-77
2020/12/17 09:07:50;;;;;;;57.90;26.55;;;;;;;2.65;87.66;101328.61;1800355;79;20986;-69
2020/12/17 09:10:18;;;;;;;58.90;25.00;;;;;;;2.69;87.98;101325.60;1764181;79;21392;-72
2020/12/17 09:12:56;;;;;;;56.45;26.20;;;;;;;2.75;88.14;101329.88;1724368;82;21299;-71
2020/12/17 09:15:24;;;;;;;58.17;26.68;;;;;;;2.77;88.20;101325.16;1765307;79;21647;-74
2020/12/17 09:17:53;;;;;;;59.88;28.15;;;;;;;2.83;87.81;101325.10;1750333;79;22270;-70
2020/12/17 09:20:23;;;;;;;50.88;25.72;;;;;;;2.85;87.56;101325.09;1788233;79;21065;-70
2020/12/17 09:22:53;;;;;;;51.35;24.77;;;;;;;2.87;87.45;101331.09;1789457;79;21057;-72
2020/12/17 09:25:28;;;;;;;62.10;25.25;;;;;;;2.89;87.21;101323.80;1783255;79;21181;-73
2020/12/17 09:27:58;;;;;;;57.73;27.13;;;;;;;2.93;86.99;101333.64;1791541;79;20997;-69
2020/12/17 09:30:31;;;;;;;56.95;27.30;;;;;;;2.93;87.00;101329.78;1731696;82;20998;-70
2020/12/17 09:33:02;;;;;;;57.38;26.62;;;;;;;2.92;86.87;101328.93;1728704;82;21699;-72
2020/12/17 09:35:33;;;;;;;47.67;25.32;;;;;;;2.93;86.83;101332.36;1772370;79;20998;-72
2020/12/17 09:38:14;;;;;;;50.92;25.37;;;;;;;2.93;86.80;101341.36;1795944;79;21041;-74
2020/12/17 09:40:44;;;;;;;56.33;26.68;;;;;;;2.94;86.75;101337.92;1805137;79;21013;-72
2020/12/17 09:43:15;;;;;;;55.63;26.25;;;;;;;2.94;86.53;101338.78;1794889;79;21116;-70
2020/12/17 09:45:47;;;;;;;51.08;25.27;;;;;;;2.93;86.47;101338.36;1716353;82;21566;-78
2020/12/17 09:48:28;;;;;;;50.58;24.20;;;;;;;2.93;86.49;101343.50;1731114;82;21076;-71
2020/12/17 09:51:06;;;;;;;49.40;24.57;;;;;;;2.93;86.53;101338.36;1804017;78;21184;-73
2020/12/17 09:53:39;;;;;;;52.75;25.55;;;;;;;2.95;86.55;101343.06;1790337;79;21551;-70
2020/12/17 09:56:13;;;;;;;54.50;24.72;;;;;;;2.94;86.54;101337.50;1774253;79;20980;-70
2020/12/17 09:58:44;;;;;;;53.17;25.92;;;;;;;2.95;86.61;101338.36;1791521;79;21095;-74
2020/12/17 10:01:13;;;;;;;54.70;27.70;;;;;;;2.96;86.59;101335.77;1791361;79;21116;-71
2020/12/17 10:03:46;;;;;;;58.17;27.25;;;;;;;2.98;86.61;101335.77;1793897;79;22111;-92
2020/12/17 10:06:19;;;;;;;55.95;26.55;;;;;;;2.99;86.56;101337.05;1755189;81;21033;-82
2020/12/17 10:08:53;;;;;;;57.20;26.77;;;;;;;3.00;86.53;101328.91;1749491;80;21009;-77
2020/12/17 10:11:30;;;;;;;52.48;26.23;;;;;;;3.01;86.49;101326.33;1737835;80;20998;-73
2020/12/17 10:13:59;;;;;;;52.55;26.10;;;;;;;3.04;86.42;101324.59;1790492;79;21011;-77
2020/12/17 10:16:27;;;;;;;60.28;29.40;;;;;;;3.05;86.46;101325.02;1748130;81;21195;-75
2020/12/17 10:18:58;;;;;;;77.32;36.58;;;;;;;3.06;86.37;101328.02;1751314;82;21096;-77
2020/12/17 10:21:26;;;;;;;78.30;36.93;;;;;;;3.07;86.36;101327.16;1792634;79;21590;-82
2020/12/17 10:23:55;;;;;;;80.75;37.65;;;;;;;3.06;86.30;101322.88;1793795;79;20882;-74
2020/12/17 10:26:33;;;;;;;75.72;35.80;;;;;;;3.05;86.25;101324.59;1801759;77;21061;-74
2020/12/17 10:29:01;;;;;;;67.62;33.05;;;;;;;3.04;86.23;101321.59;1742942;81;21654;-76
2020/12/17 10:31:29;;;;;;;70.65;34.38;;;;;;;3.04;86.45;101330.60;1762234;81;21626;-78
2020/12/17 10:33:58;;;;;;;63.33;30.75;;;;;;;3.06;86.70;101329.31;1738405;82;21072;-71
2020/12/17 10:36:28;;;;;;;68.83;32.13;;;;;;;3.10;86.88;101327.15;1804851;79;21047;-74
2020/12/17 10:38:58;;;;;;;61.25;28.62;;;;;;;3.09;86.54;101327.58;1797613;79;20974;-72
2020/12/17 10:41:27;;;;;;;59.20;28.42;;;;;;;3.09;86.42;101330.58;1720848;81;21427;-70
2020/12/17 10:43:56;;;;;;;58.73;27.65;;;;;;;3.10;86.31;101335.72;1729109;81;21014;-79
2020/12/17 10:46:24;;;;;;;60.20;29.18;;;;;;;3.10;86.29;101337.02;1784009;79;21093;-75
2020/12/17 10:48:53;;;;;;;58.13;29.37;;;;;;;3.08;86.24;101332.30;1798856;79;21088;-77
2020/12/17 10:51:21;;;;;;;61.90;29.32;;;;;;;3.08;86.26;101337.45;1739874;82;20994;-74
2020/12/17 10:53:49;;;;;;;69.07;32.50;;;;;;;3.08;86.24;101340.02;1759496;81;21209;-73
2020/12/17 10:56:18;;;;;;;69.45;32.20;;;;;;;3.09;86.22;101342.16;1745072;80;21118;-73
2020/12/17 10:58:50;;;;;;;70.22;33.38;;;;;;;3.09;86.23;101338.30;1734835;81;21017;-76
2020/12/17 11:01:22;;;;;;;70.15;33.95;;;;;;;3.09;86.15;101333.16;1735656;82;22224;-77
2020/12/17 11:03:52;;;;;;;74.05;33.75;;;;;;;3.10;86.14;101329.72;1791334;79;20966;-77
2020/12/17 11:06:23;;;;;;;74.12;32.93;;;;;;;3.09;86.17;101330.58;1773968;79;22356;-74
2020/12/17 11:08:52;;;;;;;74.42;32.73;;;;;;;3.10;86.19;101334.44;1799144;78;21014;-74
2020/12/17 11:11:21;;;;;;;69.12;33.18;;;;;;;3.11;86.03;101331.44;1725476;81;21012;-73
2020/12/17 11:13:50;;;;;;;62.33;31.15;;;;;;;3.10;86.00;101335.72;1716625;83;21064;-74
2020/12/17 11:16:20;;;;;;;69.37;31.97;;;;;;;3.10;85.99;101335.72;1732150;82;21028;-74
2020/12/17 11:18:48;;;;;;;67.00;31.85;;;;;;;3.10;85.99;101333.15;1700279;80;22132;-74
2020/12/17 11:21:22;;;;;;;68.20;30.62;;;;;;;3.09;85.99;101331.44;1788198;79;21110;-74
2020/12/17 11:23:51;;;;;;;64.47;31.95;;;;;;;3.09;85.96;101331.44;1774090;80;21103;-74
2020/12/17 11:26:19;;;;;;;69.53;31.07;;;;;;;3.09;85.91;101331.87;1774016;80;21029;-74
2020/12/17 11:28:48;;;;;;;67.80;33.08;;;;;;;3.09;85.97;101337.88;1774250;79;20962;-74
2020/12/17 11:31:17;;;;;;;64.75;32.40;;;;;;;3.10;85.92;101340.02;1790849;78;21365;-74